^^
Datos históricos de la estación: Murcia-Puente Tocinos
Diario Informe para Marzo 12, 2019 Unidades:  Métrico    Ingés   Ambas
Diario Semanal Mensual Anual
  Máxima: Mínima: Promedio:
Temperatura: 22.8 °C 12.4 °C 17 °C
Punto de rocio: 11.2 °C -1 °C 2.9 °C
Humedad: 78% 20.7% 41%
Velocidad viento: 22.5km/h 0km/h 10.4km/h
Racha viento: 42.3km/h - -
Viento- - SO
Presión: 1016.1 hPa 1013.0 hPa -
Precipitación: 0.0 mm    
 
 
Tabla de datos para Marzo 12, 2019
Hora Temperatura Punto de rocio Presión Viento Velocidad viento Racha viento Humedad Intensidad lluvia(por hora) Nubes
00:04 16.7 °C 1.6 °C 1015.0 hPa OSO 3.9 km/h 9.7 km/h 35.9% 0.0 mm
00:09 16.6 °C 1.4 °C 1015.0 hPa OSO 3.6 km/h 8 km/h 36% 0.0 mm
00:14 16.4 °C 1.3 °C 1015.0 hPa OSO 2.9 km/h 5.8 km/h 36.1% 0.0 mm
00:19 16.3 °C 1.6 °C 1015.1 hPa OSO 3 km/h 6.4 km/h 37% 0.0 mm
00:24 16.2 °C 1.5 °C 1015.1 hPa OSO 3.2 km/h 5.8 km/h 37% 0.0 mm
00:29 16.1 °C 1.4 °C 1015.1 hPa OSO 3.2 km/h 7.4 km/h 37.1% 0.0 mm
00:34 15.9 °C 1.6 °C 1015.1 hPa OSO 3.2 km/h 8.4 km/h 38% 0.0 mm
00:39 15.8 °C 1.5 °C 1015.1 hPa OSO 3.9 km/h 10 km/h 38.1% 0.0 mm
00:44 15.7 °C 1.6 °C 1015.1 hPa OSO 5 km/h 9.7 km/h 38.5% 0.0 mm
00:49 15.6 °C 1.7 °C 1015.1 hPa OSO 5.5 km/h 10 km/h 38.9% 0.0 mm
00:54 15.6 °C 1.6 °C 1014.9 hPa OSO 6.5 km/h 9.7 km/h 38.7% 0.0 mm
00:59 15.6 °C 1.4 °C 1014.9 hPa OSO 5.8 km/h 9.7 km/h 38.1% 0.0 mm
01:04 15.6 °C 1.5 °C 1014.9 hPa OSO 5 km/h 9.7 km/h 38.5% 0.0 mm
01:09 15.4 °C 1.5 °C 1014.9 hPa OSO 5 km/h 9.5 km/h 38.8% 0.0 mm
01:14 15.4 °C 1.4 °C 1014.9 hPa SO 5 km/h 10 km/h 38.8% 0.0 mm
01:19 15.3 °C 1.3 °C 1015.0 hPa OSO 5.3 km/h 9.7 km/h 38.6% 0.0 mm
01:24 15.3 °C 1.1 °C 1015.0 hPa OSO 5.8 km/h 9.7 km/h 38% 0.0 mm
01:29 15.4 °C 1.1 °C 1015.0 hPa OSO 5.5 km/h 8 km/h 38% 0.0 mm
01:34 15.4 °C 1.1 °C 1015.2 hPa SO 5 km/h 8 km/h 38% 0.0 mm
01:39 15.4 °C 0.9 °C 1015.2 hPa SSO 4.9 km/h 9.5 km/h 37.5% 0.0 mm
01:44 15.6 °C 0.9 °C 1015.2 hPa SO 4.7 km/h 10 km/h 37% 0.0 mm
01:49 15.6 °C 0.9 °C 1015.2 hPa Oeste 5.3 km/h 9.7 km/h 37% 0.0 mm
01:54 15.5 °C 1.3 °C 1015.1 hPa NO 6.5 km/h 10.3 km/h 38.3% 0.0 mm
01:59 15.2 °C 1.3 °C 1015.1 hPa ONO 6.2 km/h 9.7 km/h 39% 0.0 mm
02:04 15 °C 1.3 °C 1015.3 hPa ONO 5.8 km/h 9.7 km/h 39.5% 0.0 mm
02:09 14.9 °C 1.4 °C 1015.3 hPa ONO 4.7 km/h 8 km/h 40% 0.0 mm
02:14 14.8 °C 1.4 °C 1015.3 hPa ONO 2.9 km/h 3.2 km/h 40.3% 0.0 mm
02:19 14.7 °C 1.4 °C 1015.3 hPa ONO 1.8 km/h 7.4 km/h 40.5% 0.0 mm
02:24 14.7 °C 1.2 °C 1015.3 hPa Calm   9.5 km/h 40% 0.0 mm
02:29 14.8 °C 1.3 °C 1015.3 hPa Oeste 1.8 km/h 9.7 km/h 40.1% 0.0 mm
02:34 14.8 °C 1.6 °C 1015.3 hPa Oeste 4.7 km/h 8 km/h 40.9% 0.0 mm
02:39 14.7 °C 1.6 °C 1015.2 hPa SO 4.7 km/h 10 km/h 41% 0.0 mm
02:44 14.7 °C 1.6 °C 1015.2 hPa SO 4.7 km/h 11.1 km/h 41% 0.0 mm
02:49 14.7 °C 1.5 °C 1015.2 hPa SSO 5.5 km/h 11.3 km/h 40.8% 0.0 mm
02:54 14.8 °C 1.4 °C 1015.2 hPa Sur 6.9 km/h 10 km/h 40.2% 0.0 mm
02:59 14.7 °C 1.4 °C 1015.2 hPa Sur 6.9 km/h 13 km/h 40.4% 0.0 mm
03:04 14.6 °C 1.4 °C 1015.2 hPa SSO 6.9 km/h 12.9 km/h 40.7% 0.0 mm
03:09 14.7 °C 1.3 °C 1015.0 hPa SO 6.9 km/h 13 km/h 40.4% 0.0 mm
03:14 14.8 °C 1.3 °C 1015.0 hPa OSO 6.9 km/h 15.6 km/h 40% 0.0 mm
03:19 14.8 °C 1.3 °C 1015.0 hPa OSO 6.9 km/h 18.5 km/h 40% 0.0 mm
03:24 14.8 °C 1.3 °C 1014.8 hPa OSO 6.9 km/h 19.3 km/h 40% 0.0 mm
03:29 14.8 °C 1.3 °C 1014.8 hPa OSO 7.2 km/h 16.7 km/h 40% 0.0 mm
03:34 14.8 °C 1.3 °C 1014.9 hPa SO 7.6 km/h 16.1 km/h 40% 0.0 mm
03:39 14.8 °C 1.3 °C 1014.9 hPa SO 7.9 km/h 16.7 km/h 40% 0.0 mm
03:44 14.8 °C 1.3 °C 1014.9 hPa SO 8.4 km/h 16.1 km/h 40% 0.0 mm
03:49 14.7 °C 1.3 °C 1014.9 hPa SSO 8.1 km/h 13 km/h 40.1% 0.0 mm
03:54 14.7 °C 1.6 °C 1014.9 hPa SSO 7.6 km/h 17.2 km/h 41% 0.0 mm
03:59 14.6 °C 1.5 °C 1014.9 hPa SSO 7.9 km/h 17.7 km/h 41% 0.0 mm
04:04 14.5 °C 1.4 °C 1014.9 hPa SSO 8.4 km/h 15.6 km/h 41% 0.0 mm
04:09 14.5 °C 1.4 °C 1014.9 hPa SO 8.4 km/h 16.1 km/h 41% 0.0 mm
04:14 14.6 °C 1.5 °C 1014.9 hPa OSO 8.4 km/h 14.5 km/h 41% 0.0 mm
04:19 14.5 °C 1.6 °C 1015.0 hPa OSO 7.8 km/h 11.3 km/h 41.4% 0.0 mm
04:24 14.4 °C 1.6 °C 1015.0 hPa Oeste 6.9 km/h 11.1 km/h 42% 0.0 mm
04:29 14.1 °C 1.6 °C 1015.0 hPa Oeste 6.5 km/h 11.3 km/h 42.8% 0.0 mm
04:34 13.8 °C 1.5 °C 1015.0 hPa OSO 5.8 km/h 10 km/h 43% 0.0 mm
04:39 13.7 °C 1.3 °C 1015.0 hPa OSO 5.8 km/h 10.3 km/h 43% 0.0 mm
04:44 13.6 °C 1.4 °C 1015.0 hPa OSO 5.8 km/h 11.3 km/h 43.7% 0.0 mm
04:49 13.5 °C 1.2 °C 1015.1 hPa SO 6 km/h 13 km/h 43.4% 0.0 mm
04:54 13.5 °C 1.3 °C 1015.1 hPa SO 6.5 km/h 12.9 km/h 43.3% 0.0 mm
04:59 13.6 °C 1.2 °C 1015.1 hPa SSO 6.5 km/h 13.7 km/h 43% 0.0 mm
05:04 13.6 °C 1.2 °C 1015.1 hPa SO 6.5 km/h 14.5 km/h 43% 0.0 mm
05:09 13.6 °C 1.3 °C 1015.0 hPa SO 6.2 km/h 11.3 km/h 43.3% 0.0 mm
05:14 13.5 °C 1.4 °C 1015.0 hPa SSO 5.8 km/h 11.1 km/h 44% 0.0 mm
05:19 13.4 °C 1.4 °C 1015.0 hPa SSO 6.2 km/h 14.8 km/h 44% 0.0 mm
05:24 13.5 °C 1.4 °C 1015.0 hPa SSO 6.9 km/h 14.5 km/h 44% 0.0 mm
05:29 13.5 °C 1.5 °C 1015.0 hPa SO 6.9 km/h 11.3 km/h 44% 0.0 mm
05:34 13.6 °C 1.6 °C 1015.0 hPa SO 6.9 km/h 11.3 km/h 44% 0.0 mm
05:39 13.6 °C 1.5 °C 1015.0 hPa SO 6.7 km/h 11.9 km/h 44% 0.0 mm
05:44 13.6 °C 1.6 °C 1015.0 hPa SSO 6.5 km/h 11.3 km/h 44% 0.0 mm
05:49 13.6 °C 1.6 °C 1015.0 hPa Sur 6.2 km/h 9.7 km/h 44% 0.0 mm
05:54 13.5 °C 1.8 °C 1014.9 hPa Sur 5.8 km/h 10.3 km/h 44.8% 0.0 mm
05:59 13.3 °C 1.7 °C 1014.9 hPa SSO 5.4 km/h 11.3 km/h 45% 0.0 mm
06:04 13.3 °C 1.6 °C 1014.9 hPa SO 5 km/h 11.3 km/h 45% 0.0 mm
06:09 13.3 °C 1.7 °C 1014.9 hPa SSO 5.6 km/h 11.1 km/h 45.5% 0.0 mm
06:14 13.3 °C 1.9 °C 1014.9 hPa SO 6.5 km/h 11.3 km/h 46% 0.0 mm
06:19 13.4 °C 2 °C 1015.0 hPa SSO 6.2 km/h 11.1 km/h 46% 0.0 mm
06:24 13.3 °C 1.9 °C 1015.0 hPa SSO 5.8 km/h 11.3 km/h 46% 0.0 mm
06:29 13.2 °C 1.9 °C 1015.0 hPa SSO 6.2 km/h 13.7 km/h 46.1% 0.0 mm
06:34 13.1 °C 2.1 °C 1015.0 hPa SSO 6.9 km/h 14.5 km/h 47% 0.0 mm
06:39 13.1 °C 2.1 °C 1015.0 hPa SSO 6.9 km/h 12.9 km/h 47% 0.0 mm
06:44 13.1 °C 2.1 °C 1015.0 hPa Sur 6.9 km/h 11.3 km/h 47% 0.0 mm
06:49 13.1 °C 2 °C 1015.1 hPa SSO 6.9 km/h 11.9 km/h 47% 0.0 mm
06:54 13 °C 1.9 °C 1015.1 hPa SSO 6.9 km/h 13 km/h 47% 0.0 mm
06:59 12.9 °C 1.9 °C 1015.1 hPa SSO 7.6 km/h 12.9 km/h 47% 0.0 mm
07:04 12.9 °C 2.2 °C 1015.2 hPa Sur 8.4 km/h 11.1 km/h 48% 0.0 mm
07:09 12.8 °C 2.1 °C 1015.2 hPa Sur 7.4 km/h 11.3 km/h 48% 0.0 mm
07:14 12.8 °C 2.1 °C 1015.2 hPa Sur 5.8 km/h 9.5 km/h 48% 0.0 mm
07:19 12.8 °C 2.1 °C 1015.3 hPa Sur 5.8 km/h 9.7 km/h 48% 0.0 mm
07:24 12.8 °C 2.1 °C 1015.3 hPa Sur 5.8 km/h 9.7 km/h 48% 0.0 mm
07:29 12.8 °C 2.1 °C 1015.3 hPa SSO 5.8 km/h 9.7 km/h 48.3% 0.0 mm
07:34 12.7 °C 2.2 °C 1015.3 hPa OSO 5.8 km/h 9.7 km/h 49% 0.0 mm
07:39 12.6 °C 2.3 °C 1015.3 hPa OSO 5.5 km/h 9.7 km/h 49.3% 0.0 mm
07:44 12.5 °C 2.4 °C 1015.3 hPa OSO 5 km/h 11.1 km/h 50% 0.0 mm
07:49 12.4 °C 2.3 °C 1015.5 hPa Oeste 5 km/h 11.3 km/h 50% 0.0 mm
07:54 12.4 °C 2.3 °C 1015.5 hPa Oeste 5 km/h 13 km/h 50.2% 0.0 mm
07:59 12.5 °C 2.4 °C 1015.5 hPa Oeste 6.1 km/h 19 km/h 50% 0.0 mm
08:04 12.7 °C 2.5 °C 1015.7 hPa OSO 7.6 km/h 19.3 km/h 50% 0.0 mm
08:09 12.7 °C 2.5 °C 1015.7 hPa OSO 8 km/h 16.1 km/h 49.9% 0.0 mm
08:14 12.8 °C 2.3 °C 1015.7 hPa Oeste 8.7 km/h 18.5 km/h 49.1% 0.0 mm
08:19 12.8 °C 2.4 °C 1015.8 hPa OSO 9.3 km/h 19.3 km/h 49.3% 0.0 mm
08:24 12.8 °C 2.6 °C 1015.8 hPa Oeste 10.3 km/h 16.7 km/h 50% 0.0 mm
08:29 12.8 °C 2.6 °C 1015.8 hPa Oeste 9.7 km/h 16.1 km/h 50% 0.0 mm
08:34 12.8 °C 2.6 °C 1016.0 hPa OSO 8.7 km/h 16.4 km/h 50% 0.0 mm
08:39 12.9 °C 2.6 °C 1016.0 hPa OSO 8.6 km/h 16.7 km/h 49.5% 0.0 mm
08:44 13 °C 2.5 °C 1016.0 hPa OSO 8.4 km/h 16.4 km/h 49% 0.0 mm
08:49 13.1 °C 2.6 °C 1016.1 hPa OSO 8.9 km/h 16.7 km/h 49% 0.0 mm
08:54 13.2 °C 2.7 °C 1016.1 hPa OSO 10 km/h 16.7 km/h 49% 0.0 mm
08:59 13.3 °C 2.8 °C 1016.1 hPa OSO 10.1 km/h 17.2 km/h 49% 0.0 mm
09:04 13.4 °C 2.9 °C 1016.1 hPa OSO 10.3 km/h 17.7 km/h 49% 0.0 mm
09:09 13.5 °C 2.9 °C 1016.0 hPa OSO 10.2 km/h 16.1 km/h 48.6% 0.0 mm
09:14 13.7 °C 2.8 °C 1016.0 hPa OSO 10 km/h 16.1 km/h 48% 0.0 mm
09:19 13.8 °C 2.9 °C 1016.0 hPa OSO 10 km/h 18.5 km/h 48% 0.0 mm
09:24 13.9 °C 3.1 °C 1016.0 hPa Oeste 10 km/h 19.3 km/h 47.9% 0.0 mm
09:29 14.2 °C 3 °C 1016.0 hPa Oeste 9.4 km/h 17.2 km/h 47% 0.0 mm
09:34 14.3 °C 3 °C 1016.0 hPa Oeste 8.4 km/h 24.1 km/h 46.6% 0.0 mm
09:39 14.6 °C 3.1 °C 1015.9 hPa Oeste 9.4 km/h 24.1 km/h 45.9% 0.0 mm
09:44 14.8 °C 2.9 °C 1015.9 hPa OSO 11.1 km/h 22.2 km/h 44.8% 0.0 mm
09:49 14.9 °C 2.7 °C 1015.9 hPa Oeste 11.8 km/h 22.5 km/h 44.1% 0.0 mm
09:54 14.9 °C 2.8 °C 1015.9 hPa OSO 13 km/h 20.9 km/h 44.2% 0.0 mm
09:59 15.1 °C 2.9 °C 1015.9 hPa OSO 11.7 km/h 19.3 km/h 44% 0.0 mm
10:04 15.2 °C 3 °C 1015.9 hPa OSO 10 km/h 19.3 km/h 44% 0.0 mm
10:09 15.2 °C 3 °C 1015.9 hPa SO 9.8 km/h 17.7 km/h 44% 0.0 mm
10:14 15.4 °C 2.9 °C 1015.9 hPa OSO 9.5 km/h 14.8 km/h 43.2% 0.0 mm
10:19 15.4 °C 2.9 °C 1015.9 hPa OSO 9.2 km/h 17.2 km/h 43% 0.0 mm
10:24 15.6 °C 3.1 °C 1015.8 hPa OSO 8.7 km/h 17.7 km/h 43% 0.0 mm
10:29 15.8 °C 3.1 °C 1015.8 hPa SSO 9.2 km/h 17.7 km/h 42.6% 0.0 mm
10:34 15.8 °C 2.9 °C 1015.8 hPa SSO 10 km/h 18.5 km/h 42% 0.0 mm
10:39 15.9 °C 2.9 °C 1015.8 hPa SSO 9.8 km/h 20.4 km/h 41.8% 0.0 mm
10:44 16 °C 2.8 °C 1015.8 hPa OSO 9.5 km/h 20.9 km/h 41.3% 0.0 mm
10:49 16.2 °C 2.7 °C 1015.9 hPa Oeste 9.1 km/h 18.3 km/h 40.3% 0.0 mm
10:54 16.5 °C 2.6 °C 1015.9 hPa ONO 8.4 km/h 24.1 km/h 39.2% 0.0 mm
10:59 16.6 °C 2.4 °C 1015.9 hPa Oeste 10.6 km/h 25.9 km/h 38.5% 0.0 mm
11:04 16.7 °C 2.3 °C 1016.1 hPa ONO 13.7 km/h 25.7 km/h 38% 0.0 mm
11:09 16.8 °C 2.1 °C 1016.1 hPa ONO 12.7 km/h 20.9 km/h 37.4% 0.0 mm
11:14 16.9 °C 2.3 °C 1016.1 hPa NO 11.1 km/h 25.9 km/h 37.5% 0.0 mm
11:19 16.8 °C 2.3 °C 1016.1 hPa ONO 11.8 km/h 25.7 km/h 37.5% 0.0 mm
11:24 17.1 °C 2.3 °C 1016.1 hPa ONO 13 km/h 25.1 km/h 37.1% 0.0 mm
11:29 17.1 °C 2.2 °C 1016.1 hPa NO 13.4 km/h 29.6 km/h 37% 0.0 mm
11:34 17 °C 2.2 °C 1016.1 hPa NO 14 km/h 29 km/h 37% 0.0 mm
11:39 17.2 °C 2 °C 1015.9 hPa Oeste 14.8 km/h 29.6 km/h 36.1% 0.0 mm
11:44 17.3 °C 1.9 °C 1015.9 hPa NO 16.1 km/h 31.7 km/h 35.5% 0.0 mm
11:49 17.3 °C 2 °C 1016.0 hPa ONO 16.2 km/h 32.2 km/h 35.8% 0.0 mm
11:54 17.4 °C 2.2 °C 1016.0 hPa NO 16.4 km/h 26.2 km/h 36% 0.0 mm
11:59 17.4 °C 2.2 °C 1016.0 hPa NO 17.1 km/h 29.6 km/h 36% 0.0 mm
12:04 17.4 °C 2.2 °C 1016.0 hPa ONO 18 km/h 32.8 km/h 36% 0.0 mm
12:09 17.6 °C 2.2 °C 1015.8 hPa NO 18.2 km/h 33.8 km/h 35.6% 0.0 mm
12:14 17.8 °C 2.2 °C 1015.8 hPa NO 18.4 km/h 29 km/h 35.1% 0.0 mm
12:19 18.1 °C 2.1 °C 1015.8 hPa NO 18 km/h 30.6 km/h 34.5% 0.0 mm
12:24 17.9 °C 1.9 °C 1015.7 hPa ONO 17.2 km/h 38.9 km/h 34.2% 0.0 mm
12:29 18 °C 1.9 °C 1015.7 hPa ONO 18.2 km/h 38.6 km/h 34.1% 0.0 mm
12:34 18.2 °C 2.1 °C 1015.7 hPa NO 19.8 km/h 33.8 km/h 34.1% 0.0 mm
12:39 18.3 °C 2.1 °C 1015.5 hPa ONO 18.6 km/h 32.2 km/h 33.9% 0.0 mm
12:44 18.3 °C 1.6 °C 1015.5 hPa ONO 16.4 km/h 35.2 km/h 32.7% 0.0 mm
12:49 18.5 °C 1.5 °C 1015.5 hPa NO 17.7 km/h 38.9 km/h 32% 0.0 mm
12:54 18.8 °C 1.6 °C 1015.4 hPa ONO 19.8 km/h 38.6 km/h 31.9% 0.0 mm
12:59 18.9 °C 1.2 °C 1015.4 hPa ONO 18.7 km/h 35.2 km/h 30.6% 0.0 mm
13:04 18.8 °C 0.9 °C 1015.4 hPa ONO 17.2 km/h 38.9 km/h 30% 0.0 mm
13:09 18.9 °C 1.3 °C 1015.2 hPa ONO 19.2 km/h 38.6 km/h 30.7% 0.0 mm
13:14 19.2 °C 1.1 °C 1015.2 hPa Oeste 22.5 km/h 33.8 km/h 29.9% 0.0 mm
13:19 19.2 °C 1.1 °C 1015.2 hPa Oeste 21 km/h 33.8 km/h 29.9% 0.0 mm
13:24 19.3 °C 0.9 °C 1015.1 hPa Oeste 18.4 km/h 39.6 km/h 29.1% 0.0 mm
13:29 19.3 °C 1 °C 1015.1 hPa ONO 18.6 km/h 40.2 km/h 29.3% 0.0 mm
13:34 19.5 °C 1 °C 1015.1 hPa ONO 19 km/h 33.8 km/h 29% 0.0 mm
13:39 19.7 °C 1.4 °C 1015.0 hPa ONO 18.7 km/h 30.6 km/h 29.7% 0.0 mm
13:44 19.9 °C 1.5 °C 1015.0 hPa NO 18 km/h 35.2 km/h 29.4% 0.0 mm
13:49 19.8 °C 1.2 °C 1015.0 hPa ONO 18.8 km/h 35.9 km/h 29% 0.0 mm
13:54 19.9 °C 1.3 °C 1015.0 hPa NO 20.1 km/h 38.9 km/h 29% 0.0 mm
13:59 19.9 °C 1.3 °C 1015.0 hPa NO 21.2 km/h 38.9 km/h 29% 0.0 mm
14:04 20.1 °C 1.3 °C 1015.0 hPa ONO 22.5 km/h 38.6 km/h 28.6% 0.0 mm
14:09 20.1 °C 1.3 °C 1014.8 hPa NO 21 km/h 32.2 km/h 28.7% 0.0 mm
14:14 20.3 °C 1.5 °C 1014.8 hPa NO 18.4 km/h 32.2 km/h 28.6% 0.0 mm
14:19 20.6 °C 1.1 °C 1014.8 hPa ONO 18 km/h 34.3 km/h 27.4% 0.0 mm
14:24 20.6 °C 1.2 °C 1014.7 hPa NO 17.2 km/h 33.8 km/h 27.5% 0.0 mm
14:29 20.6 °C 1.4 °C 1014.7 hPa NO 16.9 km/h 32.2 km/h 27.9% 0.0 mm
14:34 20.6 °C 1.6 °C 1014.7 hPa NO 16.4 km/h 29 km/h 28.2% 0.0 mm
14:39 20.8 °C 1.5 °C 1014.6 hPa NO 15.1 km/h 35.2 km/h 27.7% 0.0 mm
14:44 21.2 °C 1.2 °C 1014.6 hPa ONO 13 km/h 35.4 km/h 26.7% 0.0 mm
14:49 21.1 °C 0.4 °C 1014.6 hPa ONO 14.9 km/h 35.4 km/h 25.2% 0.0 mm
14:54 21.1 °C 0.2 °C 1014.5 hPa Oeste 18 km/h 31.7 km/h 24.9% 0.0 mm
14:59 21.3 °C 0.7 °C 1014.5 hPa Oeste 18.2 km/h 37.8 km/h 25.4% 0.0 mm
15:04 21.4 °C 0 °C 1014.5 hPa Oeste 18.4 km/h 37 km/h 24.1% 0.0 mm
15:09 21.4 °C 0 °C 1014.3 hPa Oeste 18.9 km/h 40.7 km/h 24% 0.0 mm
15:14 21.3 °C -0.1 °C 1014.3 hPa ONO 19.8 km/h 40.2 km/h 24% 0.0 mm
15:19 21.3 °C -0.2 °C 1014.3 hPa Oeste 18.6 km/h 37 km/h 23.7% 0.0 mm
15:24 21.3 °C -0.1 °C 1014.3 hPa ONO 16.4 km/h 35.4 km/h 24% 0.0 mm
15:29 21.6 °C 0.4 °C 1014.3 hPa ONO 15.4 km/h 37.8 km/h 24.3% 0.0 mm
15:34 21.8 °C 0.1 °C 1014.3 hPa NNO 13.7 km/h 37 km/h 23.7% 0.0 mm
15:39 21.8 °C -0.2 °C 1014.0 hPa NO 14.7 km/h 35.2 km/h 23.1% 0.0 mm
15:44 22.1 °C 0.3 °C 1014.0 hPa NO 16.4 km/h 35.4 km/h 23.7% 0.0 mm
15:49 22.2 °C 0 °C 1014.0 hPa NO 16.4 km/h 33.5 km/h 23% 0.0 mm
15:54 22.1 °C 0 °C 1013.9 hPa ONO 16.4 km/h 33.8 km/h 23% 0.0 mm
15:59 22 °C -0.3 °C 1013.9 hPa ONO 16 km/h 31.7 km/h 22.6% 0.0 mm
16:04 22.2 °C -0.5 °C 1013.9 hPa NO 15.6 km/h 42.3 km/h 22.2% 0.0 mm
16:09 22.3 °C -0.4 °C 1013.7 hPa NO 16.2 km/h 41.8 km/h 22.1% 0.0 mm
16:14 22.3 °C -0.5 °C 1013.7 hPa ONO 17.2 km/h 33.3 km/h 22% 0.0 mm
16:19 22.1 °C -0.6 °C 1013.7 hPa NO 18.3 km/h 33.8 km/h 22% 0.0 mm
16:24 21.9 °C -0.3 °C 1013.5 hPa ONO 20.1 km/h 34.6 km/h 22.8% 0.0 mm
16:29 22.1 °C -0.5 °C 1013.5 hPa NO 19.7 km/h 35.4 km/h 22.1% 0.0 mm
16:34 22.2 °C -0.1 °C 1013.5 hPa NO 19 km/h 32.2 km/h 22.7% 0.0 mm
16:39 22.4 °C 0 °C 1013.3 hPa NO 17.1 km/h 29.6 km/h 22.5% 0.0 mm
16:44 22.4 °C -0.4 °C 1013.3 hPa NO 14 km/h 33.3 km/h 22% 0.0 mm
16:49 22.6 °C -0.2 °C 1013.3 hPa NNO 14.6 km/h 33.8 km/h 22.1% 0.0 mm
16:54 22.7 °C -0.2 °C 1013.1 hPa NO 15.6 km/h 32.2 km/h 21.9% 0.0 mm
16:59 22.5 °C -0.3 °C 1013.1 hPa NNO 16 km/h 33.3 km/h 22% 0.0 mm
17:04 22.4 °C -0.4 °C 1013.1 hPa NO 16.4 km/h 37 km/h 22% 0.0 mm
17:09 22.6 °C -0.2 °C 1013.0 hPa NO 16.4 km/h 38.1 km/h 22% 0.0 mm
17:14 22.5 °C 0 °C 1013.0 hPa NO 16.4 km/h 38.9 km/h 22.4% 0.0 mm
17:19 22.7 °C 0.1 °C 1013.1 hPa NNO 16.3 km/h 38.6 km/h 22.5% 0.0 mm
17:24 22.8 °C -0.1 °C 1013.1 hPa NO 16.1 km/h 28.2 km/h 21.9% 0.0 mm
17:29 22.7 °C -0.1 °C 1013.1 hPa NNO 15.6 km/h 30.6 km/h 22% 0.0 mm
17:34 22.7 °C -0.7 °C 1013.2 hPa North 14.8 km/h 30.6 km/h 21.1% 0.0 mm
17:39 22.7 °C -1 °C 1013.2 hPa North 14.2 km/h 29.6 km/h 20.7% 0.0 mm
17:44 22.7 °C -0.8 °C 1013.2 hPa NNO 13 km/h 31.5 km/h 21% 0.0 mm
17:49 22.7 °C -0.3 °C 1013.2 hPa NNO 13.7 km/h 32.2 km/h 21.6% 0.0 mm
17:54 22.8 °C -0.1 °C 1013.2 hPa NO 14.8 km/h 27.4 km/h 22% 0.0 mm
17:59 22.8 °C -0.2 °C 1013.2 hPa North 14.4 km/h 29.6 km/h 21.8% 0.0 mm
18:04 22.8 °C -0.1 °C 1013.2 hPa NNE 14 km/h 29 km/h 22% 0.0 mm
18:09 22.8 °C -0.1 °C 1013.1 hPa North 13.2 km/h 24.1 km/h 22% 0.0 mm
18:14 22.7 °C 0.1 °C 1013.1 hPa NNE 11.9 km/h 24.1 km/h 22.3% 0.0 mm
18:19 22.5 °C 2.7 °C 1013.1 hPa NE 12.3 km/h 24.1 km/h 27.4% 0.0 mm
18:24 21.9 °C 3 °C 1013.1 hPa NE 13 km/h 29.6 km/h 28.9% 0.0 mm
18:29 21.7 °C 3 °C 1013.1 hPa NE 14.2 km/h 29.6 km/h 29.3% 0.0 mm
18:34 21.7 °C 3.1 °C 1013.2 hPa NE 16.1 km/h 29 km/h 29.6% 0.0 mm
18:39 21.6 °C 4.2 °C 1013.2 hPa NNE 15.3 km/h 27.8 km/h 32.1% 0.0 mm
18:44 21.6 °C 5 °C 1013.2 hPa NE 14 km/h 27.4 km/h 33.8% 0.0 mm
18:49 21.5 °C 5 °C 1013.2 hPa ENE 13.7 km/h 25.9 km/h 34% 0.0 mm
18:54 21.6 °C 4.6 °C 1013.1 hPa NE 13 km/h 25.7 km/h 32.9% 0.0 mm
18:59 21.6 °C 4.6 °C 1013.1 hPa NE 12.5 km/h 20.9 km/h 33% 0.0 mm
19:04 21.5 °C 4.4 °C 1013.1 hPa NE 11.9 km/h 20.9 km/h 32.8% 0.0 mm
19:09 21.5 °C 4.3 °C 1013.1 hPa ENE 11.9 km/h 20.9 km/h 32.5% 0.0 mm
19:14 21.4 °C 4 °C 1013.1 hPa NE 11.9 km/h 22.2 km/h 32% 0.0 mm
19:19 21.2 °C 3.9 °C 1013.2 hPa NE 13 km/h 22.5 km/h 32% 0.0 mm
19:24 21.2 °C 3.9 °C 1013.2 hPa NE 14.8 km/h 22.5 km/h 32.3% 0.0 mm
19:29 21.2 °C 3.8 °C 1013.2 hPa NE 13.5 km/h 20.9 km/h 32% 0.0 mm
19:34 21.2 °C 3.9 °C 1013.3 hPa NE 11.1 km/h 19.3 km/h 32.3% 0.0 mm
19:39 21.1 °C 4.4 °C 1013.3 hPa NE 10.8 km/h 19 km/h 33.5% 0.0 mm
19:44 21 °C 4.3 °C 1013.3 hPa NE 10.3 km/h 19.3 km/h 33.6% 0.0 mm
19:49 20.8 °C 4.6 °C 1013.4 hPa NNE 10.2 km/h 19.3 km/h 34.5% 0.0 mm
19:54 20.7 °C 4.7 °C 1013.4 hPa NNE 10 km/h 16.1 km/h 35% 0.0 mm
19:59 20.5 °C 4.5 °C 1013.4 hPa NNE 10.1 km/h 18.5 km/h 35.2% 0.0 mm
20:04 20.3 °C 4.8 °C 1013.5 hPa NNE 10.3 km/h 19.3 km/h 36.1% 0.0 mm
20:09 20.3 °C 5.2 °C 1013.5 hPa NNE 9.3 km/h 14.5 km/h 37.2% 0.0 mm
20:14 20.2 °C 5.7 °C 1013.5 hPa NE 7.6 km/h 13.7 km/h 38.8% 0.0 mm
20:19 20.1 °C 5.7 °C 1013.7 hPa ENE 7.9 km/h 14.5 km/h 39% 0.0 mm
20:24 20 °C 5 °C 1013.7 hPa Este 8.4 km/h 17.2 km/h 37.4% 0.0 mm
20:29 19.7 °C 4.6 °C 1013.7 hPa ESE 8.5 km/h 17.7 km/h 37% 0.0 mm
20:34 19.6 °C 4.5 °C 1013.7 hPa ESE 8.7 km/h 19.8 km/h 37.2% 0.0 mm
20:39 19.3 °C 4.6 °C 1013.7 hPa ESE 9.3 km/h 22.2 km/h 38% 0.0 mm
20:44 19.1 °C 4.7 °C 1013.7 hPa ESE 10.3 km/h 22.5 km/h 38.6% 0.0 mm
20:49 18.9 °C 4.6 °C 1014.0 hPa ESE 10.2 km/h 19.3 km/h 39% 0.0 mm
20:54 18.8 °C 4.6 °C 1014.0 hPa NE 10 km/h 12.9 km/h 39.1% 0.0 mm
20:59 18.8 °C 4.9 °C 1014.0 hPa NNE 7.3 km/h 13 km/h 40% 0.0 mm
21:04 18.6 °C 4.7 °C 1014.4 hPa NNE 3.9 km/h 16.1 km/h 40% 0.0 mm
21:09 18.4 °C 4.8 °C 1014.4 hPa NE 5.6 km/h 16.7 km/h 40.8% 0.0 mm
21:14 18.3 °C 6.7 °C 1014.4 hPa NE 8.7 km/h 16.1 km/h 47% 0.0 mm
21:19 18 °C 8.5 °C 1014.7 hPa NE 8.7 km/h 14.8 km/h 53.8% 0.0 mm
21:24 17.7 °C 9.4 °C 1014.7 hPa NE 8.7 km/h 16.7 km/h 58.5% 0.0 mm
21:29 17.3 °C 9.9 °C 1014.7 hPa NE 9 km/h 16.7 km/h 61.8% 0.0 mm
21:34 17 °C 10.1 °C 1015.0 hPa NNE 9.5 km/h 16.1 km/h 63.9% 0.0 mm
21:39 16.8 °C 10.2 °C 1015.0 hPa NNE 9.1 km/h 14.5 km/h 65.4% 0.0 mm
21:44 16.6 °C 10.4 °C 1015.0 hPa NE 8.4 km/h 14.8 km/h 66.7% 0.0 mm
21:49 16.3 °C 10.6 °C 1015.2 hPa NE 8.9 km/h 19 km/h 69% 0.0 mm
21:54 16.1 °C 10.8 °C 1015.2 hPa NE 10 km/h 19.3 km/h 70.7% 0.0 mm
21:59 15.8 °C 10.9 °C 1015.2 hPa NE 10 km/h 18.5 km/h 72.4% 0.0 mm
22:04 15.7 °C 10.9 °C 1015.3 hPa NE 10 km/h 19.3 km/h 73.2% 0.0 mm
22:09 15.6 °C 11.1 °C 1015.3 hPa NNE 9.8 km/h 16.7 km/h 74.3% 0.0 mm
22:14 15.5 °C 11.1 °C 1015.3 hPa NNE 9.5 km/h 16.1 km/h 75.2% 0.0 mm
22:19 15.3 °C 11.1 °C 1015.6 hPa NE 9.5 km/h 16.7 km/h 76.1% 0.0 mm
22:24 15.2 °C 11.2 °C 1015.6 hPa NE 9.5 km/h 17.2 km/h 77% 0.0 mm
22:29 15.1 °C 11.2 °C 1015.6 hPa NNE 9.7 km/h 17.7 km/h 77.4% 0.0 mm
22:34 15 °C 11.2 °C 1015.6 hPa NNE 10 km/h 14.5 km/h 78% 0.0 mm
22:39 14.9 °C 11.1 °C 1015.6 hPa NNE 9.5 km/h 14.8 km/h 78% 0.0 mm
22:44 14.8 °C 11 °C 1015.6 hPa NNE 8.7 km/h 14.5 km/h 78% 0.0 mm
22:49 14.8 °C 11 °C 1015.8 hPa NNE 8.1 km/h 11.9 km/h 78% 0.0 mm
22:54 14.7 °C 10.9 °C 1015.8 hPa NE 6.9 km/h 11.3 km/h 78% 0.0 mm
22:59 14.7 °C 10.9 °C 1015.8 hPa NNE 6.4 km/h 11.3 km/h 78% 0.0 mm
23:04 14.6 °C 10.8 °C 1015.9 hPa NNE 5.8 km/h 9.7 km/h 78% 0.0 mm
23:09 14.6 °C 10.8 °C 1015.9 hPa NE 4.9 km/h 9.7 km/h 78% 0.0 mm
23:14 14.6 °C 10.8 °C 1015.9 hPa NE 3.2 km/h 8 km/h 78% 0.0 mm
23:19 14.5 °C 10.7 °C 1015.9 hPa NNO 3.2 km/h 8 km/h 78% 0.0 mm
23:24 14.4 °C 10.6 °C 1015.9 hPa NNO 3.2 km/h 9.3 km/h 78% 0.0 mm
23:29 14.4 °C 10.6 °C 1015.9 hPa NNE 3.5 km/h 9.7 km/h 78% 0.0 mm
23:34 14.3 °C 10.5 °C 1015.9 hPa North 3.9 km/h 9.3 km/h 78% 0.0 mm
23:39 14.3 °C 10.4 °C 1015.9 hPa NO 4.1 km/h 9.7 km/h 77.7% 0.0 mm
23:44 14.2 °C 10.2 °C 1015.9 hPa NO 4.7 km/h 9.7 km/h 77% 0.0 mm
23:49 14.2 °C 10.2 °C 1016.0 hPa NO 4.4 km/h 8 km/h 77% 0.0 mm
23:54 14.1 °C 10.1 °C 1016.0 hPa NO 3.9 km/h 8 km/h 77% 0.0 mm
23:59 14.2 °C 10 °C 1016.0 hPa NO 3.9 km/h 8 km/h 76.3% 0.0 mm
Murcia-Puente Tocinos, España
Compliments of Weather Underground - 3 mb

La estación de MeteoMurcia.com, publica sus datos en los siguientes proyectos:

Weather Underground PWS IMURCIAP2 Meteoclimatic www.awekas.at

W3Counter
Web Analytics